createdAt,value
2023-01-18T00:01:19.469Z,11.87
2023-01-18T00:03:46.845Z,13.87
2023-01-18T00:06:13.960Z,14.47
2023-01-18T00:08:42.567Z,13.97
2023-01-18T00:11:16.975Z,14.10
2023-01-18T00:13:44.519Z,14.07
2023-01-18T00:16:20.761Z,13.63
2023-01-18T00:18:59.054Z,13.20
2023-01-18T00:21:28.141Z,11.70
2023-01-18T00:23:56.828Z,12.20
2023-01-18T00:26:23.830Z,13.47
2023-01-18T00:28:50.842Z,13.43
2023-01-18T00:31:21.001Z,14.07
2023-01-18T00:33:50.239Z,14.30
2023-01-18T00:36:18.521Z,15.50
2023-01-18T00:38:52.380Z,14.87
2023-01-18T00:41:20.837Z,14.53
2023-01-18T00:43:47.973Z,14.27
2023-01-18T00:46:19.195Z,14.37
2023-01-18T00:48:46.161Z,14.37
2023-01-18T00:51:17.314Z,14.60
2023-01-18T00:53:45.167Z,14.53
2023-01-18T00:56:17.446Z,15.30
2023-01-18T00:58:45.094Z,14.33
2023-01-18T01:01:13.365Z,15.60
2023-01-18T01:03:58.910Z,14.43
2023-01-18T01:06:45.500Z,14.33
2023-01-18T01:09:24.635Z,14.60
2023-01-18T01:12:10.984Z,14.60
2023-01-18T01:15:01.322Z,15.00
2023-01-18T01:17:52.977Z,13.23
2023-01-18T01:20:39.185Z,13.93
2023-01-18T01:23:38.035Z,13.20
2023-01-18T01:26:13.192Z,14.67
2023-01-18T01:28:46.469Z,14.20
2023-01-18T01:31:16.312Z,14.07
2023-01-18T01:33:44.958Z,13.70
2023-01-18T01:36:19.087Z,13.60
2023-01-18T01:38:46.249Z,15.47
2023-01-18T01:41:35.154Z,14.27
2023-01-18T01:44:28.241Z,13.63
2023-01-18T01:47:32.057Z,13.37
2023-01-18T01:50:06.875Z,13.60
2023-01-18T01:52:37.622Z,13.10
2023-01-18T01:55:13.681Z,13.27
2023-01-18T01:57:58.769Z,13.97
2023-01-18T02:00:26.223Z,13.97
2023-01-18T02:03:24.133Z,13.53
2023-01-18T02:06:01.967Z,13.33
2023-01-18T02:08:29.051Z,13.97
2023-01-18T02:10:56.083Z,13.30
2023-01-18T02:13:24.903Z,13.50
2023-01-18T02:16:15.430Z,13.53
2023-01-18T02:19:29.823Z,13.30
2023-01-18T02:22:04.615Z,13.53
2023-01-18T02:24:49.051Z,12.37
2023-01-18T02:27:30.945Z,13.37
2023-01-18T02:30:09.371Z,13.47
2023-01-18T02:33:06.877Z,12.93
2023-01-18T02:35:44.592Z,13.37
2023-01-18T02:38:28.509Z,13.53
2023-01-18T02:41:19.077Z,13.90
2023-01-18T02:44:07.693Z,12.37
2023-01-18T02:46:35.050Z,13.30
2023-01-18T02:49:12.828Z,12.47
2023-01-18T02:51:39.802Z,13.47
2023-01-18T02:54:10.109Z,12.70
2023-01-18T02:56:42.932Z,12.90
2023-01-18T02:59:29.980Z,12.73
2023-01-18T03:02:07.752Z,12.10
2023-01-18T03:04:41.280Z,11.83
2023-01-18T03:07:17.801Z,11.70
2023-01-18T03:09:45.904Z,12.27
2023-01-18T03:12:45.976Z,11.80
2023-01-18T03:15:36.273Z,12.43
2023-01-18T03:18:16.531Z,11.93
2023-01-18T03:20:52.949Z,11.73
2023-01-18T03:23:38.654Z,12.00
2023-01-18T03:26:19.285Z,11.43
2023-01-18T03:29:17.421Z,11.73
2023-01-18T03:32:16.994Z,11.30
2023-01-18T03:34:57.592Z,11.87
2023-01-18T03:37:32.935Z,11.40
2023-01-18T03:40:23.781Z,11.80
2023-01-18T03:43:03.788Z,11.30
2023-01-18T03:45:37.989Z,10.97
2023-01-18T03:48:08.588Z,11.17
2023-01-18T03:51:05.541Z,10.80
2023-01-18T03:53:49.204Z,11.03
2023-01-18T03:56:26.259Z,10.47
2023-01-18T03:58:57.745Z,10.17
2023-01-18T04:01:26.089Z,9.97
2023-01-18T04:03:53.578Z,10.10
2023-01-18T04:06:23.010Z,9.77
2023-01-18T04:08:50.522Z,9.80
2023-01-18T04:11:17.911Z,9.63
2023-01-18T04:13:45.195Z,10.53
2023-01-18T04:16:12.275Z,9.27
2023-01-18T04:18:39.322Z,9.53
2023-01-18T04:21:06.295Z,8.53
2023-01-18T04:23:33.237Z,9.33
2023-01-18T04:26:00.509Z,8.83
2023-01-18T04:28:27.608Z,9.40
2023-01-18T04:30:56.738Z,9.40
2023-01-18T04:33:26.718Z,9.03
2023-01-18T04:35:54.363Z,8.80
2023-01-18T04:38:21.626Z,9.43
2023-01-18T04:40:48.586Z,9.07
2023-01-18T04:43:15.616Z,8.47
2023-01-18T04:45:42.642Z,9.27
2023-01-18T04:48:09.608Z,8.80
2023-01-18T04:50:39.601Z,9.17
2023-01-18T04:53:06.556Z,9.03
2023-01-18T04:55:33.566Z,9.07
2023-01-18T04:58:01.156Z,9.00
2023-01-18T05:00:28.221Z,10.43
2023-01-18T05:02:55.894Z,9.70
2023-01-18T05:05:23.971Z,10.03
2023-01-18T05:07:50.975Z,10.77
2023-01-18T05:10:17.952Z,10.10
2023-01-18T05:12:44.876Z,9.93
2023-01-18T05:15:12.068Z,10.07
2023-01-18T05:17:39.488Z,9.60
2023-01-18T05:20:08.782Z,9.90
2023-01-18T05:22:37.234Z,9.63
2023-01-18T05:25:05.957Z,9.73
2023-01-18T05:27:33.527Z,10.00
2023-01-18T05:30:01.807Z,9.57
2023-01-18T05:32:29.000Z,10.07
2023-01-18T05:34:56.031Z,9.97
2023-01-18T05:37:23.062Z,9.50
2023-01-18T05:39:50.033Z,10.43
2023-01-18T05:42:17.026Z,10.30
2023-01-18T05:44:44.068Z,10.50
2023-01-18T05:47:10.993Z,11.43
2023-01-18T05:49:38.496Z,10.50
2023-01-18T05:52:08.328Z,10.93
2023-01-18T05:54:35.285Z,10.50
2023-01-18T05:57:02.639Z,10.90
2023-01-18T05:59:29.662Z,11.37
2023-01-18T06:01:56.750Z,10.53
2023-01-18T06:04:23.806Z,11.47
2023-01-18T06:06:50.815Z,10.47
2023-01-18T06:09:17.760Z,10.93
2023-01-18T06:11:44.709Z,10.83
2023-01-18T06:14:11.644Z,10.40
2023-01-18T06:16:38.801Z,10.87
2023-01-18T06:19:05.826Z,10.97
2023-01-18T06:21:32.913Z,10.90
2023-01-18T06:23:59.884Z,10.73
2023-01-18T06:26:26.994Z,10.93
2023-01-18T06:28:53.927Z,11.37
2023-01-18T06:31:20.928Z,10.83
2023-01-18T06:33:48.559Z,10.67
2023-01-18T06:36:15.800Z,10.90
2023-01-18T06:38:42.921Z,9.70
2023-01-18T06:41:09.940Z,10.93
2023-01-18T06:43:36.915Z,10.93
2023-01-18T06:46:07.697Z,11.30
2023-01-18T06:48:34.756Z,10.47
2023-01-18T06:51:01.693Z,10.83
2023-01-18T06:53:28.694Z,11.23
2023-01-18T06:56:01.877Z,10.87
2023-01-18T06:58:32.805Z,10.00
2023-01-18T07:01:01.200Z,10.03
2023-01-18T07:03:30.377Z,10.43
2023-01-18T07:05:59.962Z,10.83
2023-01-18T07:08:28.102Z,10.37
2023-01-18T07:10:55.361Z,10.53
2023-01-18T07:13:22.713Z,10.63
2023-01-18T07:16:08.720Z,11.03
2023-01-18T07:18:35.655Z,10.90
2023-01-18T07:21:10.113Z,11.33
2023-01-18T07:23:39.698Z,10.17
2023-01-18T07:26:17.008Z,9.97
2023-01-18T07:28:45.557Z,11.27
2023-01-18T07:31:13.189Z,10.97
2023-01-18T07:33:40.194Z,10.77
2023-01-18T07:36:09.609Z,11.33
2023-01-18T07:38:38.252Z,11.00
2023-01-18T07:41:09.619Z,11.07
2023-01-18T07:43:40.220Z,11.00
2023-01-18T07:46:11.902Z,10.23
2023-01-18T07:48:39.246Z,10.57
2023-01-18T07:51:08.697Z,11.57
2023-01-18T07:53:38.275Z,12.33
2023-01-18T07:56:15.663Z,10.97
2023-01-18T07:58:43.700Z,11.13
2023-01-18T08:01:20.913Z,11.37
2023-01-18T08:03:49.989Z,11.43
2023-01-18T08:06:24.856Z,11.43
2023-01-18T08:08:53.951Z,11.80
2023-01-18T08:11:21.032Z,10.70
2023-01-18T08:13:49.353Z,10.07
2023-01-18T08:16:16.611Z,11.37
2023-01-18T08:18:45.497Z,11.17
2023-01-18T08:21:13.966Z,11.50
2023-01-18T08:23:41.811Z,12.17
2023-01-18T08:26:10.760Z,11.37
2023-01-18T08:28:37.878Z,11.97
2023-01-18T08:31:14.612Z,11.33
2023-01-18T08:33:47.632Z,11.67
2023-01-18T08:36:21.509Z,10.30
2023-01-18T08:38:55.307Z,9.97
2023-01-18T08:41:28.149Z,10.37
2023-01-18T08:43:59.824Z,9.03
2023-01-18T08:46:27.147Z,8.87
2023-01-18T08:48:56.644Z,8.77
2023-01-18T08:51:26.040Z,10.27
2023-01-18T08:53:57.281Z,9.10
2023-01-18T08:56:25.388Z,10.13
2023-01-18T08:58:52.467Z,9.27
2023-01-18T09:01:20.024Z,9.20
2023-01-18T09:03:48.790Z,9.77
2023-01-18T09:06:16.845Z,8.63
2023-01-18T09:08:47.409Z,8.77
2023-01-18T09:11:18.766Z,9.00
2023-01-18T09:13:59.752Z,8.53
2023-01-18T09:16:28.444Z,8.70
2023-01-18T09:18:56.391Z,8.17
2023-01-18T09:21:23.865Z,8.27
2023-01-18T09:23:51.183Z,8.67
2023-01-18T09:26:20.680Z,7.87
2023-01-18T09:29:29.493Z,8.47
2023-01-18T09:31:56.425Z,7.70
2023-01-18T09:34:23.667Z,7.30
2023-01-18T09:36:52.279Z,7.87
2023-01-18T09:39:21.299Z,7.37
2023-01-18T09:42:02.516Z,6.60
2023-01-18T09:44:39.580Z,7.40
2023-01-18T09:47:24.930Z,6.90
2023-01-18T09:50:02.380Z,7.70
2023-01-18T09:52:57.945Z,7.30
2023-01-18T09:55:42.474Z,6.80
2023-01-18T09:58:44.106Z,6.67
2023-01-18T10:01:26.015Z,6.77
2023-01-18T10:04:07.439Z,7.30
2023-01-18T10:07:07.516Z,5.80
2023-01-18T10:09:55.653Z,5.93
2023-01-18T10:12:34.622Z,5.63
2023-01-18T10:15:22.541Z,6.77
2023-01-18T10:17:55.823Z,6.53
2023-01-18T10:20:46.810Z,5.40
2023-01-18T10:23:44.309Z,5.83
2023-01-18T10:26:29.065Z,5.90
2023-01-18T10:29:35.571Z,5.70
2023-01-18T10:32:21.577Z,6.43
2023-01-18T10:34:51.921Z,6.20
2023-01-18T10:37:40.197Z,5.57
2023-01-18T10:40:12.545Z,5.87
2023-01-18T10:42:51.321Z,5.27
2023-01-18T10:45:30.895Z,5.53
2023-01-18T10:48:18.453Z,5.50
2023-01-18T10:50:53.271Z,5.50
2023-01-18T10:53:38.991Z,5.67
2023-01-18T10:56:19.771Z,5.13
2023-01-18T10:58:54.432Z,5.43
2023-01-18T11:01:25.738Z,5.20
2023-01-18T11:03:57.483Z,5.70
2023-01-18T11:06:26.359Z,5.10
2023-01-18T11:08:54.001Z,5.77
2023-01-18T11:11:49.480Z,5.60
2023-01-18T11:14:35.055Z,5.33
2023-01-18T11:17:11.500Z,4.70
2023-01-18T11:19:39.334Z,5.63
2023-01-18T11:22:17.614Z,5.00
2023-01-18T11:24:44.608Z,5.10
2023-01-18T11:27:23.557Z,5.03
2023-01-18T11:29:51.005Z,5.17
2023-01-18T11:32:30.568Z,5.10
2023-01-18T11:35:02.899Z,6.23
2023-01-18T11:37:38.785Z,5.37
2023-01-18T11:40:21.185Z,5.57
2023-01-18T11:42:51.662Z,6.00
2023-01-18T11:45:32.670Z,6.10
2023-01-18T11:48:30.266Z,6.07
2023-01-18T11:51:08.397Z,5.47
2023-01-18T11:54:14.117Z,5.73
2023-01-18T11:56:48.119Z,6.00
2023-01-18T11:59:45.637Z,5.87
2023-01-18T12:02:39.135Z,6.00
2023-01-18T12:05:28.487Z,5.90
2023-01-18T12:08:17.312Z,5.87
2023-01-18T12:11:28.546Z,6.57
2023-01-18T12:14:25.610Z,6.27
2023-01-18T12:16:56.340Z,6.87
2023-01-18T12:19:58.538Z,6.37
2023-01-18T12:22:54.475Z,5.93
2023-01-18T12:25:45.642Z,6.27
2023-01-18T12:28:56.397Z,5.90
2023-01-18T12:31:41.570Z,6.53
2023-01-18T12:34:24.025Z,5.90
2023-01-18T12:37:42.349Z,6.70
2023-01-18T12:40:49.502Z,6.00
2023-01-18T12:43:30.332Z,6.40
2023-01-18T12:46:09.490Z,5.90
2023-01-18T12:48:53.243Z,6.37
2023-01-18T12:51:25.810Z,5.83
2023-01-18T12:54:20.122Z,6.27
2023-01-18T12:56:50.638Z,5.70
2023-01-18T12:59:28.844Z,5.83
2023-01-18T13:02:36.552Z,5.80
2023-01-18T13:05:19.117Z,5.97
2023-01-18T13:07:58.844Z,5.90
2023-01-18T13:10:28.873Z,6.20
2023-01-18T13:12:57.239Z,5.70
2023-01-18T13:15:56.412Z,6.33
2023-01-18T13:18:46.400Z,5.97
2023-01-18T13:21:56.313Z,5.40
2023-01-18T13:25:08.978Z,5.30
2023-01-18T13:27:37.867Z,5.57
2023-01-18T13:30:17.031Z,5.00
2023-01-18T13:32:45.435Z,4.93
2023-01-18T13:35:21.285Z,5.07
2023-01-18T13:37:56.445Z,4.77
2023-01-18T13:41:04.259Z,5.40
2023-01-18T13:43:36.650Z,5.30
2023-01-18T13:46:09.767Z,5.00
2023-01-18T13:49:02.482Z,4.80
2023-01-18T13:51:41.645Z,4.97
2023-01-18T13:54:12.442Z,5.07
2023-01-18T13:56:40.495Z,4.90
2023-01-18T13:59:23.305Z,5.17
2023-01-18T14:01:51.188Z,4.90
2023-01-18T14:04:29.192Z,5.27
2023-01-18T14:07:00.651Z,4.67
2023-01-18T14:09:40.390Z,4.10
2023-01-18T14:12:08.222Z,4.37
2023-01-18T14:14:58.927Z,4.60
2023-01-18T14:17:26.952Z,3.73
2023-01-18T14:19:59.779Z,4.40
2023-01-18T14:22:38.573Z,4.10
2023-01-18T14:25:39.151Z,3.60
2023-01-18T14:28:15.125Z,4.10
2023-01-18T14:30:44.105Z,3.77
2023-01-18T14:33:25.337Z,4.20
2023-01-18T14:36:01.952Z,4.60
2023-01-18T14:38:30.290Z,4.07
2023-01-18T14:41:05.125Z,3.97
2023-01-18T14:43:42.764Z,6.10
2023-01-18T14:46:17.087Z,6.43
2023-01-18T14:48:57.198Z,6.07
2023-01-18T14:51:28.113Z,3.73
2023-01-18T14:54:02.028Z,3.90
2023-01-18T14:56:33.250Z,4.00
2023-01-18T14:59:16.645Z,4.17
2023-01-18T15:02:14.945Z,3.27
2023-01-18T15:04:45.791Z,3.10
2023-01-18T15:07:28.249Z,2.80
2023-01-18T15:09:56.419Z,3.67
2023-01-18T15:12:30.885Z,3.60
2023-01-18T15:15:07.926Z,3.03
2023-01-18T15:17:37.383Z,4.00
2023-01-18T15:20:12.229Z,3.17
2023-01-18T15:22:40.634Z,3.23
2023-01-18T15:25:23.369Z,3.10
2023-01-18T15:27:52.469Z,3.37
2023-01-18T15:30:23.863Z,3.40
2023-01-18T15:32:58.142Z,3.10
2023-01-18T15:35:25.970Z,3.50
2023-01-18T15:37:53.079Z,3.73
2023-01-18T15:40:20.117Z,3.73
2023-01-18T15:43:04.685Z,3.77
2023-01-18T15:45:39.451Z,4.53
2023-01-18T15:48:18.661Z,4.57
2023-01-18T15:50:56.087Z,4.20
2023-01-18T15:53:28.728Z,4.03
2023-01-18T15:56:26.094Z,4.40
2023-01-18T15:58:56.011Z,4.40
2023-01-18T16:01:35.310Z,8.07
2023-01-18T16:04:23.091Z,8.30
2023-01-18T16:06:50.154Z,5.27
2023-01-18T16:09:23.084Z,5.37
2023-01-18T16:11:54.015Z,5.17
2023-01-18T16:14:21.179Z,4.50
2023-01-18T16:16:48.719Z,5.10
2023-01-18T16:19:29.094Z,4.27
2023-01-18T16:22:00.220Z,5.90
2023-01-18T16:24:46.190Z,6.33
2023-01-18T16:27:19.536Z,6.87
2023-01-18T16:29:59.632Z,6.70
2023-01-18T16:32:29.118Z,3.93
2023-01-18T16:35:09.994Z,5.17
2023-01-18T16:37:41.339Z,9.60
2023-01-18T16:40:09.988Z,7.37
2023-01-18T16:43:01.598Z,9.73
2023-01-18T16:45:31.466Z,10.20
2023-01-18T16:47:58.742Z,5.87
2023-01-18T16:50:26.369Z,6.20
2023-01-18T16:52:53.320Z,10.00
2023-01-18T16:55:20.378Z,5.60
2023-01-18T16:57:47.322Z,13.70
2023-01-18T17:00:25.282Z,7.93
2023-01-18T17:02:53.314Z,8.50
2023-01-18T17:05:20.911Z,12.03
2023-01-18T17:07:48.236Z,9.73
2023-01-18T17:10:29.435Z,9.87
2023-01-18T17:12:56.458Z,6.90
2023-01-18T17:15:23.468Z,5.13
2023-01-18T17:17:50.482Z,5.53
2023-01-18T17:20:24.522Z,7.07
2023-01-18T17:22:52.853Z,7.27
2023-01-18T17:25:20.737Z,6.27
2023-01-18T17:27:48.827Z,6.37
2023-01-18T17:30:20.467Z,6.60
2023-01-18T17:32:48.039Z,7.17
2023-01-18T17:35:18.593Z,8.00
2023-01-18T17:37:45.929Z,6.77
2023-01-18T17:40:20.345Z,7.27
2023-01-18T17:42:51.800Z,7.17
2023-01-18T17:45:19.136Z,7.00
2023-01-18T17:47:46.153Z,6.97
2023-01-18T17:50:19.001Z,7.43
2023-01-18T17:52:46.040Z,7.40
2023-01-18T17:55:16.453Z,9.23
2023-01-18T17:57:44.715Z,8.63
2023-01-18T18:00:14.959Z,8.03
2023-01-18T18:02:42.445Z,14.97
2023-01-18T18:05:10.596Z,10.03
2023-01-18T18:07:37.794Z,11.67
2023-01-18T18:10:06.241Z,9.77
2023-01-18T18:12:34.956Z,8.00
2023-01-18T18:15:03.349Z,9.90
2023-01-18T18:17:32.421Z,9.70
2023-01-18T18:19:59.728Z,8.93
2023-01-18T18:22:27.199Z,8.57
2023-01-18T18:24:54.505Z,7.77
2023-01-18T18:27:23.137Z,9.77
2023-01-18T18:29:51.932Z,11.43
2023-01-18T18:32:18.951Z,11.60
2023-01-18T18:34:46.033Z,12.17
2023-01-18T18:37:15.098Z,23.37
2023-01-18T18:39:42.537Z,21.00
2023-01-18T18:42:09.497Z,18.90
2023-01-18T18:44:36.690Z,10.60
2023-01-18T18:47:05.280Z,11.07
2023-01-18T18:49:33.724Z,10.47
2023-01-18T18:52:03.693Z,10.57
2023-01-18T18:54:30.685Z,9.87
2023-01-18T18:56:57.719Z,11.40
2023-01-18T18:59:24.659Z,10.50
2023-01-18T19:01:52.289Z,12.53
2023-01-18T19:04:19.255Z,10.13
2023-01-18T19:06:46.365Z,11.90
2023-01-18T19:09:13.476Z,11.70
2023-01-18T19:11:50.418Z,12.40
2023-01-18T19:14:25.811Z,11.70
2023-01-18T19:16:53.929Z,10.60
2023-01-18T19:19:21.021Z,10.27
2023-01-18T19:21:50.793Z,9.93
2023-01-18T19:24:17.793Z,12.67
2023-01-18T19:26:45.047Z,14.13
2023-01-18T19:29:12.313Z,12.30
2023-01-18T19:31:39.797Z,10.73
2023-01-18T19:34:06.991Z,12.23
2023-01-18T19:36:34.102Z,11.83
2023-01-18T19:39:05.037Z,10.67
2023-01-18T19:41:34.027Z,11.57
2023-01-18T19:44:03.108Z,13.53
2023-01-18T19:46:30.760Z,11.20
2023-01-18T19:48:59.482Z,11.70
2023-01-18T19:51:27.805Z,11.40
2023-01-18T19:53:57.431Z,10.60
2023-01-18T19:56:25.734Z,11.37
2023-01-18T19:58:52.796Z,11.10
2023-01-18T20:01:34.805Z,12.40
2023-01-18T20:04:04.885Z,10.70
2023-01-18T20:06:32.112Z,11.37
2023-01-18T20:08:59.161Z,10.83
2023-01-18T20:11:26.189Z,11.43
2023-01-18T20:13:53.679Z,11.47
2023-01-18T20:16:20.798Z,12.40
2023-01-18T20:18:48.874Z,12.13
2023-01-18T20:21:19.092Z,12.67
2023-01-18T20:23:46.678Z,11.40
2023-01-18T20:26:24.608Z,11.53
2023-01-18T20:28:55.911Z,13.47
2023-01-18T20:31:23.211Z,13.20
2023-01-18T20:33:50.698Z,13.10
2023-01-18T20:36:17.631Z,13.00
2023-01-18T20:38:44.591Z,11.97
2023-01-18T20:41:11.658Z,12.63
2023-01-18T20:43:39.233Z,13.67
2023-01-18T20:46:10.255Z,12.73
2023-01-18T20:48:38.545Z,13.07
2023-01-18T20:51:07.574Z,13.60
2023-01-18T20:53:34.983Z,13.50
2023-01-18T20:56:04.798Z,14.50
2023-01-18T20:58:32.270Z,13.63
2023-01-18T21:01:15.766Z,13.37
2023-01-18T21:03:44.797Z,12.63
2023-01-18T21:06:12.355Z,12.90
2023-01-18T21:08:39.563Z,13.23
2023-01-18T21:11:13.224Z,13.20
2023-01-18T21:13:40.261Z,13.20
2023-01-18T21:16:07.404Z,14.00
2023-01-18T21:18:34.448Z,13.93
2023-01-18T21:21:01.428Z,13.77
2023-01-18T21:23:28.456Z,14.03
2023-01-18T21:25:58.767Z,13.83
2023-01-18T21:28:26.482Z,14.77
2023-01-18T21:30:56.892Z,14.20
2023-01-18T21:33:28.031Z,15.63
2023-01-18T21:35:55.530Z,14.90
2023-01-18T21:38:23.228Z,15.77
2023-01-18T21:40:50.328Z,14.83
2023-01-18T21:43:39.161Z,14.87
2023-01-18T21:46:10.701Z,15.37
2023-01-18T21:48:37.715Z,13.97
2023-01-18T21:51:24.656Z,14.63
2023-01-18T21:54:10.364Z,15.23
2023-01-18T21:56:38.017Z,15.00
2023-01-18T21:59:04.997Z,15.30
2023-01-18T22:01:39.011Z,15.40
2023-01-18T22:04:28.099Z,15.40
2023-01-18T22:06:58.340Z,15.27
2023-01-18T22:09:30.194Z,15.07
2023-01-18T22:11:58.500Z,15.23
2023-01-18T22:14:26.532Z,16.20
2023-01-18T22:16:53.844Z,15.70
2023-01-18T22:19:21.037Z,16.40
2023-01-18T22:21:48.896Z,16.40
2023-01-18T22:24:17.793Z,16.70
2023-01-18T22:26:45.537Z,16.87
2023-01-18T22:29:13.304Z,16.27
2023-01-18T22:31:40.840Z,16.03
2023-01-18T22:34:18.485Z,16.30
2023-01-18T22:36:45.555Z,15.53
2023-01-18T22:39:14.274Z,14.93
2023-01-18T22:41:41.514Z,15.23
2023-01-18T22:44:14.295Z,16.00
2023-01-18T22:46:41.205Z,15.90
2023-01-18T22:49:08.158Z,16.13
2023-01-18T22:51:35.759Z,15.90
2023-01-18T22:54:02.755Z,16.07
2023-01-18T22:56:29.728Z,16.77
2023-01-18T22:58:56.657Z,16.40
2023-01-18T23:01:26.172Z,16.83
2023-01-18T23:03:57.216Z,16.20
2023-01-18T23:06:24.276Z,15.57
2023-01-18T23:08:52.093Z,16.40
2023-01-18T23:11:29.752Z,15.33
2023-01-18T23:14:16.597Z,15.90
2023-01-18T23:17:02.663Z,15.47
2023-01-18T23:19:30.938Z,14.30
2023-01-18T23:21:58.335Z,14.03
2023-01-18T23:24:25.894Z,13.33
2023-01-18T23:26:52.923Z,13.73
2023-01-18T23:29:20.510Z,15.37
2023-01-18T23:31:47.715Z,14.20
2023-01-18T23:34:14.898Z,13.17
2023-01-18T23:36:41.853Z,13.73
2023-01-18T23:39:27.690Z,12.83
2023-01-18T23:42:13.197Z,12.67
2023-01-18T23:44:58.508Z,12.87
2023-01-18T23:47:44.075Z,12.00
2023-01-18T23:50:29.916Z,12.87
2023-01-18T23:53:18.989Z,13.70
2023-01-18T23:55:46.184Z,14.43
2023-01-18T23:58:13.127Z,14.03
